Sea Thames — V2BV1 — position and weather

sailwx.info

Track history (hours):
 
Tides and Currents Weather Stations Pressure Air Temp Water Temp Dewpoint Dewpoint Depression Visibility Wind Speed Wind Dir Waves Ship Positions

Sea Thames

Last reported at 2016-Jul-28 05:33 UTC. Time now 2016-Jul-28 06:44 UTC.
Position N 51°03' E 001°24'.

Length 87 m; draft 3.4 m.

Type: Cargo ship. MMSI: 304933000.

Date/timePositionNaut miles runAvg speedWind from/ knotsBaromVisibWave heightAir tempDewpointWater temp
2016-Jul-28 05:33N 51°03' E 001°24'6 6.3
2016-Jul-28 04:33N 51°07' E 001°32'8 7.6
2016-Jul-28 03:33N 51°12' E 001°41'9 8.9
2016-Jul-28 02:33N 51°19' E 001°49'10 9.7
2016-Jul-28 01:33N 51°28' E 001°56'9 9.0
2016-Jul-28 00:33N 51°34' E 002°06'69 6.3
2016-Jul-27 13:33N 52°03' E 003°47'7 7.1
2016-Jul-27 12:34N 52°01' E 003°59'9 8.9
2016-Jul-27 11:33N 51°57' E 004°11'8 7.7
2016-Jul-27 10:33N 51°54' E 004°23'0 0.0
2016-Jul-27 09:33N 51°54' E 004°23'0 0.0
2016-Jul-27 08:30N 51°54' E 004°23'0 0.0
2016-Jul-27 07:33N 51°54' E 004°23'0 0.0
2016-Jul-27 06:32N 51°54' E 004°23'0 0.0
2016-Jul-27 05:27N 51°54' E 004°23'0 0.0
2016-Jul-27 04:31N 51°54' E 004°23'0 0.0
2016-Jul-27 03:32N 51°54' E 004°23'0 0.0
2016-Jul-27 02:30N 51°54' E 004°23'0 0.0
2016-Jul-27 01:30N 51°54' E 004°23'0 0.0
2016-Jul-27 00:30N 51°54' E 004°23'0 0.0
2016-Jul-26 23:28N 51°54' E 004°23'0 0.0
2016-Jul-26 22:30N 51°54' E 004°23'0 0.0
2016-Jul-26 21:31N 51°54' E 004°23'0 0.0
2016-Jul-26 20:31N 51°54' E 004°23'0 0.0
2016-Jul-26 19:31N 51°54' E 004°23'0 0.0
2016-Jul-26 18:29N 51°54' E 004°23'0 0.0
2016-Jul-26 17:31N 51°54' E 004°23'0 0.0
2016-Jul-26 16:27N 51°54' E 004°23'0 0.0
2016-Jul-26 15:26N 51°54' E 004°23'0 0.0
2016-Jul-26 14:28N 51°54' E 004°23'0 0.0
2016-Jul-26 13:32N 51°54' E 004°23'0 0.0
2016-Jul-26 12:30N 51°54' E 004°23'0 0.0
2016-Jul-26 11:31N 51°54' E 004°23'0 0.0
2016-Jul-26 10:29N 51°54' E 004°23'0 0.0
2016-Jul-26 09:26N 51°54' E 004°23'0 0.0
2016-Jul-26 08:31N 51°54' E 004°23'0 0.0
2016-Jul-26 07:31N 51°54' E 004°23'0 0.0
2016-Jul-26 06:33N 51°54' E 004°23'7 6.9
2016-Jul-26 05:33N 51°56' E 004°12'8 8.3
2016-Jul-26 04:34N 51°60' E 003°60'8 8.4
2016-Jul-26 03:33N 51°59' E 003°46'8 7.2
2016-Jul-26 02:30N 51°57' E 003°34'6 6.3
2016-Jul-26 01:33N 51°55' E 003°25'9 5.9
2016-Jul-26 00:05N 51°53' E 003°12'4 5.7
2016-Jul-25 23:19N 51°51' E 003°05'4 5.4
2016-Jul-25 22:32N 51°50' E 002°58'6 6.4
2016-Jul-25 21:33N 51°48' E 002°49'8 7.4
2016-Jul-25 20:31N 51°45' E 002°38'8 8.4
2016-Jul-25 19:33N 51°38' E 002°29'10 9.5
2016-Jul-25 18:33N 51°31' E 002°19'10 9.8
2016-Jul-25 17:33N 51°23' E 002°10'1010.3
2016-Jul-25 16:33N 51°14' E 002°03'1111.0
2016-Jul-25 15:33N 51°07' E 001°49'1211.2
2016-Jul-25 14:32N 50°59' E 001°36'74 7.4
2016-Jul-25 04:33N 50°18' W 000°01'8 7.8
2016-Jul-25 03:33N 50°16' W 000°13'12 8.5
2016-Jul-25 02:09N 50°13' W 000°31'158 9.0
2016-Jul-24 08:33N 49°07' W 004°14'2110.8
2016-Jul-24 06:33N 48°55' W 004°40'1110.7
2016-Jul-24 05:33N 48°48' W 004°54'1010.5
2016-Jul-24 04:33N 48°42' W 005°06'10 9.5
2016-Jul-24 03:32N 48°36' W 005°17'23 7.1
2016-Jul-24 00:21N 48°13' W 005°23'6 7.4
2016-Jul-23 23:34N 48°09' W 005°18'7 7.4
2016-Jul-23 22:32N 48°03' W 005°11'6 6.2
2016-Jul-23 21:33N 47°59' W 005°04'6 6.5
2016-Jul-23 20:33N 47°54' W 004°57'7 7.2
2016-Jul-23 19:33N 47°50' W 004°48'25 8.1
2016-Jul-23 16:33N 47°34' W 004°20'10 8.2
2016-Jul-23 15:22N 47°28' W 004°09'7 8.0
2016-Jul-23 14:26N 47°24' W 004°00'7 7.9
2016-Jul-23 13:30N 47°19' W 003°52'7 7.7
2016-Jul-23 12:32N 47°15' W 003°43'8 7.7
2016-Jul-23 11:33N 47°10' W 003°34'8 7.6
2016-Jul-23 10:33N 47°05' W 003°26'8 7.7
2016-Jul-23 09:33N 47°00' W 003°17'8 7.8
2016-Jul-23 08:30N 46°55' W 003°07'7 7.5
2016-Jul-23 07:32N 46°51' W 002°59'8 7.6
2016-Jul-23 06:30N 46°46' W 002°50'17 7.9
2016-Jul-23 04:18N 46°35' W 002°31'6 8.0
2016-Jul-23 03:31N 46°31' W 002°24'7 7.8
2016-Jul-23 02:33N 46°26' W 002°15'8 7.9
2016-Jul-23 01:33N 46°21' W 002°06'8 7.9
2016-Jul-23 00:32N 46°16' W 001°57'8 8.0
2016-Jul-22 23:33N 46°11' W 001°48'8 7.9
2016-Jul-22 22:31N 46°08' W 001°38'9 9.7
2016-Jul-22 21:33N 46°06' W 001°24'9 9.0
2016-Jul-22 20:33N 46°02' W 001°13'  
2016-Jul-20 14:27N 45°59' W 001°07'6 6.7
2016-Jul-20 13:33N 46°03' W 001°13'0 0.1
2016-Jul-20 12:31N 46°03' W 001°13'0 0.3
2016-Jul-20 11:33N 46°03' W 001°13'1 0.9
2016-Jul-20 10:33N 46°04' W 001°14'1 0.7
2016-Jul-20 09:32N 46°03' W 001°13'0 0.1
2016-Jul-20 08:31N 46°03' W 001°13'0 0.0
2016-Jul-20 07:33N 46°03' W 001°13'0 0.0
2016-Jul-20 06:33N 46°03' W 001°13'0 0.1
2016-Jul-20 05:30N 46°03' W 001°13'2 2.2
2016-Jul-20 04:33N 46°01' W 001°12'2 2.0
2016-Jul-20 03:22N 45°60' W 001°10'0 0.2
2016-Jul-20 02:34N 45°60' W 001°10'9 8.6
2016-Jul-20 01:33N 46°06' W 001°19'6 6.0
2016-Jul-20 00:32N 46°07' W 001°27'5 5.5
2016-Jul-19 23:34N 46°07' W 001°35'7 6.6
2016-Jul-19 22:33N 46°09' W 001°44'1 1.4
2016-Jul-19 21:33N 46°08' W 001°45'7 7.0
2016-Jul-19 20:33N 46°13' W 001°51'8 8.3
2016-Jul-19 19:34N 46°18' W 002°01'8 8.3
2016-Jul-19 18:33N 46°24' W 002°10'8 8.3
2016-Jul-19 17:34N 46°29' W 002°20'9 8.8
2016-Jul-19 16:33N 46°34' W 002°30'10 9.7
2016-Jul-19 15:33N 46°40' W 002°40'30 9.4
2016-Jul-19 12:20N 46°59' W 003°15'7 9.1
2016-Jul-19 11:34N 47°03' W 003°23'9 9.1
2016-Jul-19 10:34N 47°09' W 003°34'9 9.3
2016-Jul-19 09:34N 47°15' W 003°44'9 9.0
2016-Jul-19 08:33N 47°21' W 003°55'10 9.5
2016-Jul-19 07:28N 47°27' W 004°07'28 9.6
2016-Jul-19 04:33N 47°45' W 004°39'10 9.8
2016-Jul-19 03:33N 47°51' W 004°51'9 9.4
2016-Jul-19 02:33N 47°57' W 005°01'8 8.2
2016-Jul-19 01:33N 48°03' W 005°10'62 6.8
2016-Jul-18 16:31N 49°05' W 005°16'11 8.5
2016-Jul-18 15:10N 49°11' W 005°01'5 8.3
2016-Jul-18 14:33N 49°13' W 004°54'11 8.6
2016-Jul-18 13:14N 49°19' W 004°39'17 9.8
2016-Jul-18 11:32N 49°28' W 004°17'1110.8
2016-Jul-18 10:33N 49°33' W 004°03'1110.9
2016-Jul-18 09:32N 49°39' W 003°49'1010.5
2016-Jul-18 08:33N 49°45' W 003°35'10 9.7
2016-Jul-18 07:33N 49°49' W 003°22'8 8.1
2016-Jul-18 06:33N 49°54' W 003°12'7 7.4
2016-Jul-18 05:33N 49°58' W 003°02'  
Track history (hours):
 
Tides and Currents Weather Stations Pressure Air Temp Water Temp Dewpoint Dewpoint Depression Visibility Wind Speed Wind Dir Waves Ship Positions

Sea Thames

Last reported at 2016-Jul-28 05:33 UTC. Time now 2016-Jul-28 06:44 UTC.
Position N 51°03' E 001°24'.

Length 87 m; draft 3.4 m.

Type: Cargo ship. MMSI: 304933000.

Date/timePositionNaut miles runAvg speedWind from/ knotsBaromVisibWave heightAir tempDewpointWater temp
2016-Jul-28 05:33N 51°03' E 001°24'6 6.3
2016-Jul-28 04:33N 51°07' E 001°32'8 7.6
2016-Jul-28 03:33N 51°12' E 001°41'9 8.9
2016-Jul-28 02:33N 51°19' E 001°49'10 9.7
2016-Jul-28 01:33N 51°28' E 001°56'9 9.0
2016-Jul-28 00:33N 51°34' E 002°06'69 6.3
2016-Jul-27 13:33N 52°03' E 003°47'7 7.1
2016-Jul-27 12:34N 52°01' E 003°59'9 8.9
2016-Jul-27 11:33N 51°57' E 004°11'8 7.7
2016-Jul-27 10:33N 51°54' E 004°23'0 0.0
2016-Jul-27 09:33N 51°54' E 004°23'0 0.0
2016-Jul-27 08:30N 51°54' E 004°23'0 0.0
2016-Jul-27 07:33N 51°54' E 004°23'0 0.0
2016-Jul-27 06:32N 51°54' E 004°23'0 0.0
2016-Jul-27 05:27N 51°54' E 004°23'0 0.0
2016-Jul-27 04:31N 51°54' E 004°23'0 0.0
2016-Jul-27 03:32N 51°54' E 004°23'0 0.0
2016-Jul-27 02:30N 51°54' E 004°23'0 0.0
2016-Jul-27 01:30N 51°54' E 004°23'0 0.0
2016-Jul-27 00:30N 51°54' E 004°23'0 0.0
2016-Jul-26 23:28N 51°54' E 004°23'0 0.0
2016-Jul-26 22:30N 51°54' E 004°23'0 0.0
2016-Jul-26 21:31N 51°54' E 004°23'0 0.0
2016-Jul-26 20:31N 51°54' E 004°23'0 0.0
2016-Jul-26 19:31N 51°54' E 004°23'0 0.0
2016-Jul-26 18:29N 51°54' E 004°23'0 0.0
2016-Jul-26 17:31N 51°54' E 004°23'0 0.0
2016-Jul-26 16:27N 51°54' E 004°23'0 0.0
2016-Jul-26 15:26N 51°54' E 004°23'0 0.0
2016-Jul-26 14:28N 51°54' E 004°23'0 0.0
2016-Jul-26 13:32N 51°54' E 004°23'0 0.0
2016-Jul-26 12:30N 51°54' E 004°23'0 0.0
2016-Jul-26 11:31N 51°54' E 004°23'0 0.0
2016-Jul-26 10:29N 51°54' E 004°23'0 0.0
2016-Jul-26 09:26N 51°54' E 004°23'0 0.0
2016-Jul-26 08:31N 51°54' E 004°23'0 0.0
2016-Jul-26 07:31N 51°54' E 004°23'0 0.0
2016-Jul-26 06:33N 51°54' E 004°23'7 6.9
2016-Jul-26 05:33N 51°56' E 004°12'8 8.3
2016-Jul-26 04:34N 51°60' E 003°60'8 8.4
2016-Jul-26 03:33N 51°59' E 003°46'8 7.2
2016-Jul-26 02:30N 51°57' E 003°34'6 6.3
2016-Jul-26 01:33N 51°55' E 003°25'9 5.9
2016-Jul-26 00:05N 51°53' E 003°12'4 5.7
2016-Jul-25 23:19N 51°51' E 003°05'4 5.4
2016-Jul-25 22:32N 51°50' E 002°58'6 6.4
2016-Jul-25 21:33N 51°48' E 002°49'8 7.4
2016-Jul-25 20:31N 51°45' E 002°38'8 8.4
2016-Jul-25 19:33N 51°38' E 002°29'10 9.5
2016-Jul-25 18:33N 51°31' E 002°19'10 9.8
2016-Jul-25 17:33N 51°23' E 002°10'1010.3
2016-Jul-25 16:33N 51°14' E 002°03'1111.0
2016-Jul-25 15:33N 51°07' E 001°49'1211.2
2016-Jul-25 14:32N 50°59' E 001°36'74 7.4
2016-Jul-25 04:33N 50°18' W 000°01'8 7.8
2016-Jul-25 03:33N 50°16' W 000°13'12 8.5
2016-Jul-25 02:09N 50°13' W 000°31'158 9.0
2016-Jul-24 08:33N 49°07' W 004°14'2110.8
2016-Jul-24 06:33N 48°55' W 004°40'1110.7
2016-Jul-24 05:33N 48°48' W 004°54'1010.5
2016-Jul-24 04:33N 48°42' W 005°06'10 9.5
2016-Jul-24 03:32N 48°36' W 005°17'23 7.1
2016-Jul-24 00:21N 48°13' W 005°23'6 7.4
2016-Jul-23 23:34N 48°09' W 005°18'7 7.4
2016-Jul-23 22:32N 48°03' W 005°11'6 6.2
2016-Jul-23 21:33N 47°59' W 005°04'6 6.5
2016-Jul-23 20:33N 47°54' W 004°57'7 7.2
2016-Jul-23 19:33N 47°50' W 004°48'25 8.1
2016-Jul-23 16:33N 47°34' W 004°20'10 8.2
2016-Jul-23 15:22N 47°28' W 004°09'7 8.0
2016-Jul-23 14:26N 47°24' W 004°00'7 7.9
2016-Jul-23 13:30N 47°19' W 003°52'7 7.7
2016-Jul-23 12:32N 47°15' W 003°43'8 7.7
2016-Jul-23 11:33N 47°10' W 003°34'8 7.6
2016-Jul-23 10:33N 47°05' W 003°26'8 7.7
2016-Jul-23 09:33N 47°00' W 003°17'8 7.8
2016-Jul-23 08:30N 46°55' W 003°07'7 7.5
2016-Jul-23 07:32N 46°51' W 002°59'8 7.6
2016-Jul-23 06:30N 46°46' W 002°50'17 7.9
2016-Jul-23 04:18N 46°35' W 002°31'6 8.0
2016-Jul-23 03:31N 46°31' W 002°24'7 7.8
2016-Jul-23 02:33N 46°26' W 002°15'8 7.9
2016-Jul-23 01:33N 46°21' W 002°06'8 7.9
2016-Jul-23 00:32N 46°16' W 001°57'8 8.0
2016-Jul-22 23:33N 46°11' W 001°48'8 7.9
2016-Jul-22 22:31N 46°08' W 001°38'9 9.7
2016-Jul-22 21:33N 46°06' W 001°24'9 9.0
2016-Jul-22 20:33N 46°02' W 001°13'  
2016-Jul-20 14:27N 45°59' W 001°07'6 6.7
2016-Jul-20 13:33N 46°03' W 001°13'0 0.1
2016-Jul-20 12:31N 46°03' W 001°13'0 0.3
2016-Jul-20 11:33N 46°03' W 001°13'1 0.9
2016-Jul-20 10:33N 46°04' W 001°14'1 0.7
2016-Jul-20 09:32N 46°03' W 001°13'0 0.1
2016-Jul-20 08:31N 46°03' W 001°13'0 0.0
2016-Jul-20 07:33N 46°03' W 001°13'0 0.0
2016-Jul-20 06:33N 46°03' W 001°13'0 0.1
2016-Jul-20 05:30N 46°03' W 001°13'2 2.2
2016-Jul-20 04:33N 46°01' W 001°12'2 2.0
2016-Jul-20 03:22N 45°60' W 001°10'0 0.2
2016-Jul-20 02:34N 45°60' W 001°10'9 8.6
2016-Jul-20 01:33N 46°06' W 001°19'6 6.0
2016-Jul-20 00:32N 46°07' W 001°27'5 5.5
2016-Jul-19 23:34N 46°07' W 001°35'7 6.6
2016-Jul-19 22:33N 46°09' W 001°44'1 1.4
2016-Jul-19 21:33N 46°08' W 001°45'7 7.0
2016-Jul-19 20:33N 46°13' W 001°51'8 8.3
2016-Jul-19 19:34N 46°18' W 002°01'8 8.3
2016-Jul-19 18:33N 46°24' W 002°10'8 8.3
2016-Jul-19 17:34N 46°29' W 002°20'9 8.8
2016-Jul-19 16:33N 46°34' W 002°30'10 9.7
2016-Jul-19 15:33N 46°40' W 002°40'30 9.4
2016-Jul-19 12:20N 46°59' W 003°15'7 9.1
2016-Jul-19 11:34N 47°03' W 003°23'9 9.1
2016-Jul-19 10:34N 47°09' W 003°34'9 9.3
2016-Jul-19 09:34N 47°15' W 003°44'9 9.0
2016-Jul-19 08:33N 47°21' W 003°55'10 9.5
2016-Jul-19 07:28N 47°27' W 004°07'28 9.6
2016-Jul-19 04:33N 47°45' W 004°39'10 9.8
2016-Jul-19 03:33N 47°51' W 004°51'9 9.4
2016-Jul-19 02:33N 47°57' W 005°01'8 8.2
2016-Jul-19 01:33N 48°03' W 005°10'62 6.8
2016-Jul-18 16:31N 49°05' W 005°16'11 8.5
2016-Jul-18 15:10N 49°11' W 005°01'5 8.3
2016-Jul-18 14:33N 49°13' W 004°54'11 8.6
2016-Jul-18 13:14N 49°19' W 004°39'17 9.8
2016-Jul-18 11:32N 49°28' W 004°17'1110.8
2016-Jul-18 10:33N 49°33' W 004°03'1110.9
2016-Jul-18 09:32N 49°39' W 003°49'1010.5
2016-Jul-18 08:33N 49°45' W 003°35'10 9.7
2016-Jul-18 07:33N 49°49' W 003°22'8 8.1
2016-Jul-18 06:33N 49°54' W 003°12'7 7.4
2016-Jul-18 05:33N 49°58' W 003°02'  

Dump ship's entire track history